createdAt,value
2023-01-18T00:01:27.792Z,-0.54
2023-01-18T00:03:29.736Z,-0.53
2023-01-18T00:05:31.605Z,-0.5
2023-01-18T00:07:33.362Z,-0.49
2023-01-18T00:09:34.956Z,-0.52
2023-01-18T00:11:35.957Z,-0.53
2023-01-18T00:13:37.117Z,-0.53
2023-01-18T00:15:38.795Z,-0.57
2023-01-18T00:17:40.699Z,-0.56
2023-01-18T00:19:42.147Z,-0.58
2023-01-18T00:21:43.573Z,-0.61
2023-01-18T00:23:44.758Z,-0.64
2023-01-18T00:25:46.518Z,-0.64
2023-01-18T00:27:48.380Z,-0.62
2023-01-18T00:29:50.324Z,-0.63
2023-01-18T00:31:51.707Z,-0.63
2023-01-18T00:33:53.057Z,-0.64
2023-01-18T00:35:54.141Z,-0.63
2023-01-18T00:37:55.360Z,-0.66
2023-01-18T00:39:56.985Z,-0.67
2023-01-18T00:41:58.907Z,-0.65
2023-01-18T00:44:00.231Z,-0.67
2023-01-18T00:46:01.347Z,-0.64
2023-01-18T00:48:03.317Z,-0.69
2023-01-18T00:50:04.747Z,-0.68
2023-01-18T00:52:06.426Z,-0.7
2023-01-18T00:54:08.329Z,-0.71
2023-01-18T00:56:10.322Z,-0.72
2023-01-18T00:58:11.592Z,-0.69
2023-01-18T01:00:12.873Z,-0.71
2023-01-18T01:02:14.453Z,-0.7
2023-01-18T01:04:15.436Z,-0.71
2023-01-18T01:06:17.250Z,-0.74
2023-01-18T01:08:18.808Z,-0.73
2023-01-18T01:10:20.037Z,-0.71
2023-01-18T01:12:22.040Z,-0.74
2023-01-18T01:14:23.074Z,-0.72
2023-01-18T01:16:24.674Z,-0.72
2023-01-18T01:18:26.364Z,-0.76
2023-01-18T01:20:27.448Z,-0.72
2023-01-18T01:22:29.507Z,-0.75
2023-01-18T01:24:30.813Z,-0.72
2023-01-18T01:26:32.023Z,-0.73
2023-01-18T01:28:33.828Z,-0.71
2023-01-18T01:30:35.613Z,-0.72
2023-01-18T01:32:36.837Z,-0.74
2023-01-18T01:34:38.345Z,-0.73
2023-01-18T01:36:39.736Z,-0.75
2023-01-18T01:38:41.131Z,-0.74
2023-01-18T01:40:42.380Z,-0.76
2023-01-18T01:42:43.755Z,-0.74
2023-01-18T01:44:44.930Z,-0.7
2023-01-18T01:46:46.852Z,-0.7
2023-01-18T01:48:48.361Z,-0.67
2023-01-18T01:50:49.640Z,-0.64
2023-01-18T01:52:51.324Z,-0.69
2023-01-18T01:54:52.443Z,-0.67
2023-01-18T01:56:54.287Z,-0.67
2023-01-18T01:58:55.692Z,-0.61
2023-01-18T02:00:57.173Z,-0.67
2023-01-18T02:02:59.056Z,-0.69
2023-01-18T02:05:00.561Z,-0.68
2023-01-18T02:07:01.843Z,-0.7
2023-01-18T02:09:03.029Z,-0.72
2023-01-18T02:11:04.214Z,-0.73
2023-01-18T02:13:05.302Z,-0.73
2023-01-18T02:15:06.959Z,-0.74
2023-01-18T02:17:08.667Z,-0.75
2023-01-18T02:19:09.709Z,-0.78
2023-01-18T02:21:10.769Z,-0.77
2023-01-18T02:23:11.922Z,-0.77
2023-01-18T02:25:13.396Z,-0.78
2023-01-18T02:27:15.246Z,-0.76
2023-01-18T02:29:16.498Z,-0.76
2023-01-18T02:31:17.902Z,-0.75
2023-01-18T02:33:19.530Z,-0.75
2023-01-18T02:35:20.934Z,-0.76
2023-01-18T02:37:22.677Z,-0.74
2023-01-18T02:39:24.505Z,-0.74
2023-01-18T02:41:25.798Z,-0.73
2023-01-18T02:43:27.285Z,-0.71
2023-01-18T02:45:28.787Z,-0.73
2023-01-18T02:47:30.631Z,-0.75
2023-01-18T02:49:32.109Z,-0.72
2023-01-18T02:51:33.997Z,-0.78
2023-01-18T02:53:35.401Z,-0.77
2023-01-18T02:55:36.684Z,-0.74
2023-01-18T02:57:37.748Z,-0.74
2023-01-18T02:59:39.200Z,-0.74
2023-01-18T03:03:42.231Z,-0.78
2023-01-18T03:05:44.139Z,-0.81
2023-01-18T03:07:45.789Z,-0.78
2023-01-18T03:09:46.982Z,-0.8
2023-01-18T03:11:48.374Z,-0.82
2023-01-18T03:13:50.159Z,-0.82
2023-01-18T03:15:51.807Z,-0.81
2023-01-18T03:17:52.842Z,-0.8
2023-01-18T03:19:54.195Z,-0.8
2023-01-18T03:21:55.958Z,-0.82
2023-01-18T03:23:57.366Z,-0.81
2023-01-18T03:25:58.490Z,-0.85
2023-01-18T03:28:00.241Z,-0.84
2023-01-18T03:30:01.449Z,-0.88
2023-01-18T03:32:03.322Z,-0.88
2023-01-18T03:34:04.977Z,-0.85
2023-01-18T03:36:06.339Z,-0.88
2023-01-18T03:38:07.726Z,-0.87
2023-01-18T03:40:08.875Z,-0.92
2023-01-18T03:42:10.566Z,-0.87
2023-01-18T03:46:13.020Z,-0.87
2023-01-18T03:48:14.797Z,-0.89
2023-01-18T03:50:16.267Z,-0.93
2023-01-18T03:52:18.006Z,-0.87
2023-01-18T03:54:19.564Z,-0.9
2023-01-18T03:56:21.365Z,-0.89
2023-01-18T03:58:22.723Z,-0.95
2023-01-18T04:00:24.483Z,-0.93
2023-01-18T04:02:26.375Z,-0.91
2023-01-18T04:04:27.858Z,-0.92
2023-01-18T04:06:29.319Z,-0.91
2023-01-18T04:08:30.976Z,-0.93
2023-01-18T04:10:32.407Z,-0.92
2023-01-18T04:12:34.355Z,-0.92
2023-01-18T04:14:35.420Z,-0.9
2023-01-18T04:16:37.010Z,-0.91
2023-01-18T04:18:38.914Z,-0.94
2023-01-18T04:20:40.921Z,-0.92
2023-01-18T04:22:42.368Z,-0.93
2023-01-18T04:24:43.967Z,-0.92
2023-01-18T04:26:45.711Z,-0.93
2023-01-18T04:28:47.058Z,-0.95
2023-01-18T04:29:31.030Z,-0.95
2023-01-18T04:31:32.261Z,-0.94
2023-01-18T04:33:33.912Z,-0.96
2023-01-18T04:35:35.952Z,-0.91
2023-01-18T04:37:37.870Z,-0.92
2023-01-18T04:39:39.383Z,-0.89
2023-01-18T04:41:40.755Z,-0.93
2023-01-18T04:43:42.464Z,-0.92
2023-01-18T04:45:44.033Z,-0.92
2023-01-18T04:47:45.222Z,-0.94
2023-01-18T04:49:46.712Z,-0.96
2023-01-18T04:51:48.384Z,-0.96
2023-01-18T04:53:50.138Z,-0.95
2023-01-18T04:55:51.193Z,-0.97
2023-01-18T04:57:52.387Z,-0.96
2023-01-18T04:59:54.356Z,-0.95
2023-01-18T05:01:56.054Z,-0.99
2023-01-18T05:03:58.132Z,-1
2023-01-18T05:05:59.364Z,-1.02
2023-01-18T05:08:00.611Z,-0.99
2023-01-18T05:10:01.950Z,-1
2023-01-18T05:12:03.376Z,-1.03
2023-01-18T05:14:04.746Z,-1.02
2023-01-18T05:16:06.587Z,-1.03
2023-01-18T05:18:07.789Z,-1.05
2023-01-18T05:20:09.370Z,-1
2023-01-18T05:22:10.717Z,-1.02
2023-01-18T05:24:12.540Z,-1.03
2023-01-18T05:26:13.711Z,-1.01
2023-01-18T05:28:15.385Z,-1
2023-01-18T05:30:16.896Z,-1.02
2023-01-18T05:32:18.321Z,-0.99
2023-01-18T05:34:19.504Z,-0.98
2023-01-18T05:36:21.488Z,-0.97
2023-01-18T05:38:23.524Z,-0.99
2023-01-18T05:40:24.650Z,-0.96
2023-01-18T05:42:26.412Z,-0.98
2023-01-18T05:44:28.251Z,-0.97
2023-01-18T05:46:29.888Z,-0.99
2023-01-18T05:48:31.591Z,-0.96
2023-01-18T05:50:32.946Z,-0.95
2023-01-18T05:52:34.189Z,-0.93
2023-01-18T05:54:36.246Z,-0.91
2023-01-18T05:56:38.074Z,-0.95
2023-01-18T05:58:39.723Z,-0.92
2023-01-18T06:00:41.114Z,-0.93
2023-01-18T06:02:42.657Z,-0.92
2023-01-18T06:04:43.963Z,-0.91
2023-01-18T06:06:45.247Z,-0.91
2023-01-18T06:08:47.123Z,-0.89
2023-01-18T06:10:48.874Z,-0.89
2023-01-18T06:12:50.752Z,-0.91
2023-01-18T06:14:52.663Z,-0.9
2023-01-18T06:16:54.694Z,-0.9
2023-01-18T06:18:56.570Z,-0.9
2023-01-18T06:21:00.326Z,-0.87
2023-01-18T06:22:59.347Z,-0.87
2023-01-18T06:25:00.231Z,-0.88
2023-01-18T06:27:01.727Z,-0.87
2023-01-18T06:29:03.267Z,-0.87
2023-01-18T06:31:04.805Z,-0.89
2023-01-18T06:33:05.938Z,-0.86
2023-01-18T06:35:07.359Z,-0.85
2023-01-18T06:37:09.058Z,-0.86
2023-01-18T06:39:10.279Z,-0.83
2023-01-18T06:41:12.283Z,-0.85
2023-01-18T06:43:14.500Z,-0.84
2023-01-18T06:45:15.688Z,-0.86
2023-01-18T06:47:25.516Z,-0.84
2023-01-18T06:49:18.943Z,-0.83
2023-01-18T06:51:20.331Z,-0.84
2023-01-18T06:53:22.241Z,-0.88
2023-01-18T06:55:23.947Z,-0.87
2023-01-18T06:57:25.498Z,-0.88
2023-01-18T06:59:26.789Z,-0.84
2023-01-18T07:01:28.090Z,-0.83
2023-01-18T07:03:29.920Z,-0.83
2023-01-18T07:05:31.164Z,-0.86
2023-01-18T07:07:32.500Z,-0.83
2023-01-18T07:09:34.030Z,-0.78
2023-01-18T07:11:35.340Z,-0.81
2023-01-18T07:13:36.859Z,-0.8
2023-01-18T07:15:38.537Z,-0.84
2023-01-18T07:17:39.912Z,-0.84
2023-01-18T07:19:41.349Z,-0.85
2023-01-18T07:21:42.668Z,-0.86
2023-01-18T07:23:44.465Z,-0.85
2023-01-18T07:25:45.669Z,-0.86
2023-01-18T07:27:46.894Z,-0.81
2023-01-18T07:29:49.550Z,-0.83
2023-01-18T07:31:50.071Z,-0.8
2023-01-18T07:33:51.809Z,-0.77
2023-01-18T07:35:52.930Z,-0.78
2023-01-18T07:37:54.231Z,-0.79
2023-01-18T07:39:55.399Z,-0.8
2023-01-18T07:41:56.867Z,-0.77
2023-01-18T07:43:58.944Z,-0.76
2023-01-18T07:45:59.944Z,-0.74
2023-01-18T07:48:01.024Z,-0.79
2023-01-18T07:50:02.315Z,-0.76
2023-01-18T07:52:04.077Z,-0.74
2023-01-18T07:54:05.699Z,-0.68
2023-01-18T07:56:07.470Z,-0.67
2023-01-18T07:58:08.764Z,-0.63
2023-01-18T08:00:10.118Z,-0.64
2023-01-18T08:02:11.365Z,-0.57
2023-01-18T08:04:12.395Z,-0.63
2023-01-18T08:06:13.584Z,-0.58
2023-01-18T08:08:15.064Z,-0.6
2023-01-18T08:10:16.434Z,-0.54
2023-01-18T08:12:17.677Z,-0.51
2023-01-18T08:14:19.222Z,-0.52
2023-01-18T08:16:21.205Z,-0.41
2023-01-18T08:18:22.788Z,-0.41
2023-01-18T08:20:24.379Z,-0.36
2023-01-18T08:22:25.589Z,-0.44
2023-01-18T08:24:28.111Z,-0.42
2023-01-18T08:26:28.571Z,-0.37
2023-01-18T08:28:30.388Z,-0.34
2023-01-18T08:30:31.502Z,-0.31
2023-01-18T08:32:33.114Z,-0.34
2023-01-18T08:34:34.571Z,-0.34
2023-01-18T08:36:36.609Z,-0.27
2023-01-18T08:38:38.528Z,-0.25
2023-01-18T08:40:40.007Z,-0.24
2023-01-18T08:42:41.665Z,-0.22
2023-01-18T08:44:43.307Z,-0.25
2023-01-18T08:46:44.976Z,-0.16
2023-01-18T08:48:46.401Z,-0.15
2023-01-18T08:50:49.165Z,-0.08
2023-01-18T08:52:49.979Z,-0.12
2023-01-18T08:54:51.485Z,-0.15
2023-01-18T08:56:53.363Z,-0.09
2023-01-18T08:58:55.440Z,-0.02
2023-01-18T09:00:57.220Z,-0.07
2023-01-18T09:02:59.133Z,-0.04
2023-01-18T09:05:00.248Z,0.01
2023-01-18T09:07:02.150Z,0.01
2023-01-18T09:09:03.461Z,0.01
2023-01-18T09:11:04.635Z,0
2023-01-18T09:13:06.650Z,0.03
2023-01-18T09:15:07.723Z,0.02
2023-01-18T09:17:09.682Z,0.08
2023-01-18T09:19:11.224Z,0.03
2023-01-18T09:21:13.025Z,0.05
2023-01-18T09:23:14.648Z,0.06
2023-01-18T09:25:16.687Z,0.1
2023-01-18T09:27:17.857Z,0.14
2023-01-18T09:29:19.673Z,0.08
2023-01-18T09:31:21.381Z,0.21
2023-01-18T09:33:22.873Z,0.12
2023-01-18T09:35:24.712Z,0.16
2023-01-18T09:37:26.173Z,0.14
2023-01-18T09:39:27.452Z,0.16
2023-01-18T09:41:28.719Z,0.16
2023-01-18T09:43:30.505Z,0.16
2023-01-18T09:45:32.355Z,0.15
2023-01-18T09:47:33.600Z,0.1
2023-01-18T09:49:35.563Z,0.15
2023-01-18T09:51:36.708Z,0.25
2023-01-18T09:53:38.226Z,0.18
2023-01-18T09:55:40.041Z,0.24
2023-01-18T09:57:41.550Z,0.25
2023-01-18T09:59:42.977Z,0.17
2023-01-18T10:01:44.460Z,0.18
2023-01-18T10:03:45.432Z,0.17
2023-01-18T10:05:47.161Z,0.02
2023-01-18T10:07:49.118Z,0.02
2023-01-18T10:09:50.179Z,0.08
2023-01-18T10:11:51.967Z,0.09
2023-01-18T10:13:53.254Z,0.13
2023-01-18T10:15:55.235Z,0.14
2023-01-18T10:17:56.642Z,0.1
2023-01-18T10:19:58.239Z,0.13
2023-01-18T10:21:59.709Z,0.14
2023-01-18T10:24:01.534Z,0.15
2023-01-18T10:26:03.105Z,0.09
2023-01-18T10:28:04.930Z,0.2
2023-01-18T10:30:06.652Z,0.07
2023-01-18T10:32:08.516Z,0.12
2023-01-18T10:34:10.324Z,0.12
2023-01-18T10:36:11.892Z,0.08
2023-01-18T10:38:13.596Z,0.09
2023-01-18T10:40:15.488Z,0.18
2023-01-18T10:42:17.149Z,0.25
2023-01-18T10:44:18.243Z,0.28
2023-01-18T10:46:19.781Z,0.23
2023-01-18T10:48:21.688Z,0.22
2023-01-18T10:50:23.491Z,0.18
2023-01-18T10:52:24.819Z,0.27
2023-01-18T10:54:26.468Z,0.27
2023-01-18T10:56:28.167Z,0.28
2023-01-18T10:58:29.570Z,0.28
2023-01-18T11:00:31.111Z,0.33
2023-01-18T11:02:32.944Z,0.25
2023-01-18T11:04:34.066Z,0.27
2023-01-18T11:06:35.872Z,0.33
2023-01-18T11:08:37.522Z,0.3
2023-01-18T11:10:39.012Z,0.32
2023-01-18T11:12:40.217Z,0.3
2023-01-18T11:14:41.719Z,0.34
2023-01-18T11:17:27.440Z,0.41
2023-01-18T11:19:29.029Z,0.37
2023-01-18T11:21:30.209Z,0.45
2023-01-18T11:23:31.939Z,0.39
2023-01-18T11:25:33.603Z,0.48
2023-01-18T11:27:34.830Z,0.52
2023-01-18T11:29:36.473Z,0.53
2023-01-18T11:31:38.212Z,0.54
2023-01-18T11:33:40.101Z,0.52
2023-01-18T11:35:41.363Z,0.56
2023-01-18T11:37:42.988Z,0.6
2023-01-18T11:39:45.505Z,0.55
2023-01-18T11:41:45.867Z,0.64
2023-01-18T11:45:49.176Z,0.7
2023-01-18T11:47:50.969Z,0.57
2023-01-18T11:49:52.609Z,0.55
2023-01-18T11:51:54.176Z,0.54
2023-01-18T11:53:56.205Z,0.54
2023-01-18T11:55:57.574Z,0.59
2023-01-18T11:57:58.783Z,0.63
2023-01-18T12:00:00.593Z,0.59
2023-01-18T12:02:01.985Z,0.52
2023-01-18T12:04:03.530Z,0.55
2023-01-18T12:06:04.764Z,0.56
2023-01-18T12:08:06.480Z,0.63
2023-01-18T12:10:08.009Z,0.68
2023-01-18T12:12:18.359Z,0.7
2023-01-18T12:14:10.988Z,0.71
2023-01-18T12:16:12.929Z,0.75
2023-01-18T12:18:14.181Z,0.74
2023-01-18T12:20:15.207Z,0.76
2023-01-18T12:22:16.389Z,0.8
2023-01-18T12:24:17.968Z,0.75
2023-01-18T12:26:19.066Z,0.76
2023-01-18T12:28:20.909Z,0.79
2023-01-18T12:30:22.193Z,0.78
2023-01-18T12:32:24.042Z,0.76
2023-01-18T12:34:25.500Z,0.59
2023-01-18T12:36:26.920Z,0.64
2023-01-18T12:38:27.938Z,0.72
2023-01-18T12:40:29.583Z,0.73
2023-01-18T12:42:31.093Z,0.75
2023-01-18T12:44:32.112Z,0.84
2023-01-18T12:46:33.754Z,0.8
2023-01-18T12:48:34.865Z,0.83
2023-01-18T12:50:36.233Z,1.02
2023-01-18T12:52:37.463Z,1.04
2023-01-18T12:54:39.128Z,0.84
2023-01-18T12:56:40.233Z,0.83
2023-01-18T12:58:42.030Z,0.95
2023-01-18T13:00:43.480Z,0.85
2023-01-18T13:02:45.029Z,0.87
2023-01-18T13:04:46.287Z,0.82
2023-01-18T13:06:48.038Z,0.9
2023-01-18T13:08:49.798Z,0.84
2023-01-18T13:10:51.430Z,0.9
2023-01-18T13:12:53.060Z,0.93
2023-01-18T13:14:54.805Z,0.89
2023-01-18T13:16:55.968Z,0.98
2023-01-18T13:18:57.520Z,0.94
2023-01-18T13:20:58.924Z,0.87
2023-01-18T13:23:00.432Z,0.84
2023-01-18T13:25:01.813Z,0.84
2023-01-18T13:27:03.676Z,0.84
2023-01-18T13:29:05.362Z,0.79
2023-01-18T13:31:07.104Z,0.73
2023-01-18T13:33:09.025Z,0.79
2023-01-18T13:35:19.901Z,0.8
2023-01-18T13:37:14.663Z,0.86
2023-01-18T13:39:13.214Z,0.83
2023-01-18T13:41:15.194Z,0.73
2023-01-18T13:43:16.279Z,0.74
2023-01-18T13:45:18.201Z,0.57
2023-01-18T13:47:20.006Z,0.63
2023-01-18T13:49:36.053Z,0.54
2023-01-18T13:51:22.779Z,0.49
2023-01-18T13:53:23.797Z,0.56
2023-01-18T13:55:25.045Z,0.4
2023-01-18T13:57:26.303Z,0.49
2023-01-18T13:59:27.276Z,0.48
2023-01-18T14:01:28.607Z,0.48
2023-01-18T14:03:30.467Z,0.43
2023-01-18T14:05:31.854Z,0.45
2023-01-18T14:07:33.615Z,0.5
2023-01-18T14:09:35.219Z,0.4
2023-01-18T14:11:36.892Z,0.39
2023-01-18T14:13:38.387Z,0.41
2023-01-18T14:15:39.769Z,0.45
2023-01-18T14:17:49.981Z,0.38
2023-01-18T14:19:42.915Z,0.42
2023-01-18T14:21:44.904Z,0.4
2023-01-18T14:23:46.744Z,0.39
2023-01-18T14:25:47.842Z,0.45
2023-01-18T14:27:49.221Z,0.46
2023-01-18T14:29:50.885Z,0.39
2023-01-18T14:31:52.818Z,0.36
2023-01-18T14:33:54.585Z,0.33
2023-01-18T14:35:55.929Z,0.34
2023-01-18T14:37:59.063Z,0.38
2023-01-18T14:39:58.692Z,0.41
2023-01-18T14:42:00.572Z,0.42
2023-01-18T14:44:02.435Z,0.35
2023-01-18T14:46:03.770Z,0.37
2023-01-18T14:48:04.800Z,0.37
2023-01-18T14:52:07.716Z,0.37
2023-01-18T14:54:09.309Z,0.39
2023-01-18T14:56:10.782Z,0.33
2023-01-18T14:58:12.648Z,0.32
2023-01-18T15:00:13.902Z,0.34
2023-01-18T15:02:15.911Z,0.33
2023-01-18T15:04:17.160Z,0.32
2023-01-18T15:06:18.676Z,0.32
2023-01-18T15:08:20.643Z,0.29
2023-01-18T15:10:22.141Z,0.25
2023-01-18T15:12:23.325Z,0.25
2023-01-18T15:14:24.553Z,0.27
2023-01-18T15:16:26.029Z,0.28
2023-01-18T15:18:27.215Z,0.25
2023-01-18T15:20:28.643Z,0.25
2023-01-18T15:22:29.975Z,0.2
2023-01-18T15:24:31.130Z,0.22
2023-01-18T15:26:33.055Z,0.18
2023-01-18T15:28:34.476Z,0.2
2023-01-18T15:30:36.151Z,0.21
2023-01-18T15:32:37.520Z,0.25
2023-01-18T15:34:38.627Z,0.25
2023-01-18T15:36:39.689Z,0.21
2023-01-18T15:38:41.172Z,0.21
2023-01-18T15:40:42.961Z,0.21
2023-01-18T15:42:44.286Z,0.16
2023-01-18T15:44:45.941Z,0.07
2023-01-18T15:46:47.837Z,0.06
2023-01-18T15:48:49.678Z,0
2023-01-18T15:50:50.988Z,-0.09
2023-01-18T15:52:52.501Z,-0.23
2023-01-18T15:54:53.691Z,-0.32
2023-01-18T15:56:55.455Z,-0.46
2023-01-18T15:58:57.284Z,-0.53
2023-01-18T16:00:59.152Z,-0.58
2023-01-18T16:03:00.345Z,-0.6
2023-01-18T16:05:02.025Z,-0.59
2023-01-18T16:07:03.718Z,-0.57
2023-01-18T16:09:05.709Z,-0.58
2023-01-18T16:11:06.812Z,-0.64
2023-01-18T16:13:08.696Z,-0.64
2023-01-18T16:15:10.559Z,-0.7
2023-01-18T16:17:11.956Z,-0.67
2023-01-18T16:19:13.142Z,-0.6
2023-01-18T16:21:15.010Z,-0.57
2023-01-18T16:23:16.887Z,-0.61
2023-01-18T16:25:18.130Z,-0.64
2023-01-18T16:27:20.166Z,-0.59
2023-01-18T16:29:21.968Z,-0.58
2023-01-18T16:31:23.626Z,-0.57
2023-01-18T16:33:24.733Z,-0.63
2023-01-18T16:35:26.470Z,-0.68
2023-01-18T16:37:27.735Z,-0.71
2023-01-18T16:39:29.509Z,-0.77
2023-01-18T16:41:30.646Z,-0.75
2023-01-18T16:43:32.470Z,-0.8
2023-01-18T16:45:33.679Z,-0.8
2023-01-18T16:47:35.186Z,-0.81
2023-01-18T16:49:36.725Z,-0.79
2023-01-18T16:51:38.160Z,-0.8
2023-01-18T16:53:39.469Z,-0.81
2023-01-18T16:55:40.943Z,-0.83
2023-01-18T16:57:42.782Z,-0.88
2023-01-18T16:59:44.557Z,-0.87
2023-01-18T17:01:45.980Z,-0.81
2023-01-18T17:03:48.203Z,-0.8
2023-01-18T17:05:48.917Z,-0.8
2023-01-18T17:07:50.296Z,-0.77
2023-01-18T17:09:53.270Z,-0.79
2023-01-18T17:11:54.029Z,-0.87
2023-01-18T17:13:55.613Z,-0.88
2023-01-18T17:15:56.863Z,-0.89
2023-01-18T17:17:58.032Z,-0.97
2023-01-18T17:19:59.691Z,-1
2023-01-18T17:22:00.883Z,-1.02
2023-01-18T17:24:01.974Z,-1.02
2023-01-18T17:26:03.726Z,-1.06
2023-01-18T17:28:05.574Z,-1
2023-01-18T17:30:07.222Z,-1.05
2023-01-18T17:32:09.191Z,-0.99
2023-01-18T17:34:10.944Z,-0.99
2023-01-18T17:36:12.381Z,-0.98
2023-01-18T17:38:22.932Z,-0.97
2023-01-18T17:40:19.870Z,-0.95
2023-01-18T17:42:25.987Z,-0.96
2023-01-18T17:44:20.592Z,-1.02
2023-01-18T17:46:20.418Z,-1.08
2023-01-18T17:48:21.522Z,-1.11
2023-01-18T17:50:23.468Z,-1.13
2023-01-18T17:52:24.969Z,-1.19
2023-01-18T17:54:26.400Z,-1.24
2023-01-18T17:56:27.665Z,-1.26
2023-01-18T17:58:29.423Z,-1.31
2023-01-18T18:00:30.548Z,-1.4
2023-01-18T18:03:16.753Z,-1.49
2023-01-18T18:05:17.969Z,-1.55
2023-01-18T18:07:19.147Z,-1.59
2023-01-18T18:09:20.827Z,-1.64
2023-01-18T18:11:22.777Z,-1.73
2023-01-18T18:13:23.928Z,-1.78
2023-01-18T18:15:25.701Z,-1.78
2023-01-18T18:17:27.126Z,-1.81
2023-01-18T18:19:28.987Z,-1.86
2023-01-18T18:21:30.088Z,-1.85
2023-01-18T18:23:31.261Z,-1.87
2023-01-18T18:25:32.746Z,-1.87
2023-01-18T18:27:44.586Z,-1.88
2023-01-18T18:29:36.607Z,-1.95
2023-01-18T18:31:38.663Z,-1.93
2023-01-18T18:33:40.361Z,-1.99
2023-01-18T18:35:41.806Z,-1.98
2023-01-18T18:37:43.389Z,-1.96
2023-01-18T18:39:44.483Z,-1.93
2023-01-18T18:41:45.753Z,-1.96
2023-01-18T18:43:47.519Z,-1.98
2023-01-18T18:45:48.795Z,-2.04
2023-01-18T18:47:50.208Z,-2.04
2023-01-18T18:49:51.781Z,-2.12
2023-01-18T18:51:53.513Z,-2.21
2023-01-18T18:53:55.401Z,-2.32
2023-01-18T18:55:56.651Z,-2.21
2023-01-18T18:57:58.284Z,-2.32
2023-01-18T18:59:59.897Z,-2.38
2023-01-18T19:02:01.379Z,-2.41
2023-01-18T19:04:02.649Z,-2.42
2023-01-18T19:06:04.640Z,-2.34
2023-01-18T19:08:06.590Z,-2.46
2023-01-18T19:10:08.373Z,-2.55
2023-01-18T19:12:09.988Z,-2.48
2023-01-18T19:14:11.617Z,-2.42
2023-01-18T19:18:14.350Z,-2.52
2023-01-18T19:20:15.414Z,-2.44
2023-01-18T19:22:17.367Z,-2.58
2023-01-18T19:24:18.958Z,-2.5
2023-01-18T19:26:20.689Z,-2.77
2023-01-18T19:28:22.679Z,-2.67
2023-01-18T19:30:24.771Z,-2.96
2023-01-18T19:32:26.540Z,-2.79
2023-01-18T19:34:28.654Z,-3.06
2023-01-18T19:36:30.122Z,-3.21
2023-01-18T19:38:31.284Z,-3.13
2023-01-18T19:40:32.810Z,-2.96
2023-01-18T19:42:34.720Z,-2.9
2023-01-18T19:44:35.908Z,-2.97
2023-01-18T19:46:38.025Z,-3.03
2023-01-18T19:48:39.684Z,-3.17
2023-01-18T19:50:41.560Z,-3.25
2023-01-18T19:52:43.402Z,-3.31
2023-01-18T19:54:44.949Z,-3.31
2023-01-18T19:56:47.016Z,-3.3
2023-01-18T20:00:49.822Z,-3.79
2023-01-18T20:02:50.919Z,-3.92
2023-01-18T20:04:52.274Z,-4.07
2023-01-18T20:06:53.569Z,-3.68
2023-01-18T20:08:54.805Z,-3.81
2023-01-18T20:10:56.790Z,-3.68
2023-01-18T20:12:58.954Z,-3.71
2023-01-18T20:15:00.092Z,-3.84
2023-01-18T20:17:01.849Z,-3.62
2023-01-18T20:19:03.626Z,-3.77
2023-01-18T20:21:05.463Z,-3.94
2023-01-18T20:23:07.602Z,-3.94
2023-01-18T20:25:08.725Z,-4.05
2023-01-18T20:27:15.651Z,-4.15
2023-01-18T20:29:11.598Z,-4.26
2023-01-18T20:31:13.595Z,-4.27
2023-01-18T20:33:15.623Z,-4.55
2023-01-18T20:35:17.081Z,-4.56
2023-01-18T20:37:18.314Z,-4.57
2023-01-18T20:39:20.149Z,-4.62
2023-01-18T20:41:21.833Z,-4.64
2023-01-18T20:43:22.980Z,-4.41
2023-01-18T20:45:24.334Z,-4.29
2023-01-18T20:47:25.483Z,-4.76
2023-01-18T20:49:36.920Z,-4.83
2023-01-18T20:51:28.650Z,-4.77
2023-01-18T20:53:30.407Z,-4.77
2023-01-18T20:55:31.619Z,-4.91
2023-01-18T20:57:33.659Z,-4.99
2023-01-18T20:59:35.690Z,-5.2
2023-01-18T21:01:37.438Z,-5.27
2023-01-18T21:03:38.562Z,-5.39
2023-01-18T21:05:40.323Z,-5.42
2023-01-18T21:07:42.152Z,-5.41
2023-01-18T21:09:43.590Z,-5.51
2023-01-18T21:11:45.470Z,-5.55
2023-01-18T21:13:47.209Z,-5.38
2023-01-18T21:15:48.871Z,-5.29
2023-01-18T21:17:50.094Z,-5.35
2023-01-18T21:19:51.966Z,-5.49
2023-01-18T21:21:53.998Z,-5.7
2023-01-18T21:23:55.722Z,-5.78
2023-01-18T21:25:57.453Z,-5.81
2023-01-18T21:27:58.906Z,-5.82
2023-01-18T21:30:00.000Z,-5.84
2023-01-18T21:32:02.222Z,-5.9
2023-01-18T21:34:04.219Z,-5.99
2023-01-18T21:36:06.199Z,-5.9
2023-01-18T21:38:08.135Z,-5.78
2023-01-18T21:40:10.052Z,-5.71
2023-01-18T21:42:11.630Z,-5.63
2023-01-18T21:44:12.937Z,-5.62
2023-01-18T21:46:13.960Z,-5.6
2023-01-18T21:48:15.203Z,-5.54
2023-01-18T21:50:18.359Z,-5.57
2023-01-18T21:52:18.522Z,-5.53
2023-01-18T21:54:19.765Z,-5.51
2023-01-18T21:56:21.179Z,-5.66
2023-01-18T21:58:22.942Z,-5.86
2023-01-18T22:00:24.242Z,-5.93
2023-01-18T22:02:25.804Z,-5.95
2023-01-18T22:04:27.493Z,-5.92
2023-01-18T22:06:28.928Z,-5.86
2023-01-18T22:08:30.424Z,-5.95
2023-01-18T22:10:31.786Z,-5.97
2023-01-18T22:12:33.936Z,-6.04
2023-01-18T22:14:35.825Z,-6.12
2023-01-18T22:16:37.254Z,-6.13
2023-01-18T22:18:38.471Z,-6.22
2023-01-18T22:20:40.288Z,-6.27
2023-01-18T22:22:41.965Z,-6.34
2023-01-18T22:24:43.658Z,-6.24
2023-01-18T22:26:45.181Z,-6.18
2023-01-18T22:28:46.910Z,-6.07
2023-01-18T22:30:48.833Z,-5.99
2023-01-18T22:32:50.273Z,-6.15
2023-01-18T22:34:51.475Z,-6.28
2023-01-18T22:36:52.903Z,-6.43
2023-01-18T22:38:54.306Z,-6.24
2023-01-18T22:40:55.618Z,-6.27
2023-01-18T22:42:57.337Z,-6.13
2023-01-18T22:44:59.261Z,-6.2
2023-01-18T22:47:01.185Z,-6.24
2023-01-18T22:49:02.677Z,-6.05
2023-01-18T22:51:04.210Z,-6.13
2023-01-18T22:53:05.625Z,-6.2
2023-01-18T22:55:07.750Z,-6.21
2023-01-18T22:57:09.070Z,-6.25
2023-01-18T22:59:10.468Z,-6.38
2023-01-18T23:01:12.018Z,-6.55
2023-01-18T23:03:13.787Z,-6.34
2023-01-18T23:05:15.016Z,-6.28
2023-01-18T23:07:16.848Z,-5.98
2023-01-18T23:09:18.187Z,-6.17
2023-01-18T23:11:19.394Z,-6.28
2023-01-18T23:13:20.994Z,-6.15
2023-01-18T23:15:23.136Z,-6.23
2023-01-18T23:17:24.719Z,-5.97
2023-01-18T23:19:26.516Z,-6.21
2023-01-18T23:21:27.971Z,-6.01
2023-01-18T23:23:29.850Z,-5.73
2023-01-18T23:25:31.180Z,-5.49
2023-01-18T23:27:32.681Z,-6.01
2023-01-18T23:29:34.333Z,-6.26
2023-01-18T23:31:36.311Z,-6.01
2023-01-18T23:33:38.175Z,-6.14
2023-01-18T23:35:40.276Z,-5.77
2023-01-18T23:37:42.118Z,-5.23
2023-01-18T23:39:43.562Z,-5.35
2023-01-18T23:41:45.157Z,-6.03
2023-01-18T23:43:46.409Z,-6.3
2023-01-18T23:45:47.699Z,-6.26
2023-01-18T23:47:48.963Z,-5.51
2023-01-18T23:49:50.567Z,-5.44
2023-01-18T23:51:52.331Z,-5.07
2023-01-18T23:53:54.120Z,-4.84
2023-01-18T23:55:55.375Z,-4.65
2023-01-18T23:57:57.180Z,-5.08
2023-01-18T23:59:58.481Z,-5.05
